createdAt,value
2018-08-06T00:00:25.999Z,20.40
2018-08-06T00:02:54.720Z,20.35
2018-08-06T00:05:23.471Z,20.38
2018-08-06T00:07:52.260Z,20.39
2018-08-06T00:10:23.644Z,20.33
2018-08-06T00:12:52.403Z,20.30
2018-08-06T00:15:21.183Z,20.31
2018-08-06T00:17:49.915Z,20.32
2018-08-06T00:20:18.686Z,20.30
2018-08-06T00:22:47.344Z,20.30
2018-08-06T00:25:16.863Z,20.26
2018-08-06T00:27:45.909Z,20.28
2018-08-06T00:30:16.260Z,20.29
2018-08-06T00:32:45.719Z,20.29
2018-08-06T00:35:14.759Z,20.30
2018-08-06T00:37:43.552Z,20.30
2018-08-06T00:40:13.591Z,20.28
2018-08-06T00:42:43.119Z,20.27
2018-08-06T00:45:13.750Z,20.27
2018-08-06T00:47:42.467Z,20.27
2018-08-06T00:50:11.408Z,20.26
2018-08-06T00:52:40.080Z,20.23
2018-08-06T00:55:10.604Z,20.19
2018-08-06T00:57:39.484Z,20.12
2018-08-06T01:00:10.611Z,20.07
2018-08-06T01:02:39.295Z,20.02
2018-08-06T01:05:09.547Z,20.01
2018-08-06T01:07:38.655Z,20.04
2018-08-06T01:10:09.007Z,20.08
2018-08-06T01:12:38.401Z,20.09
2018-08-06T01:15:07.700Z,20.10
2018-08-06T01:17:36.463Z,20.10
2018-08-06T01:20:06.768Z,20.08
2018-08-06T01:22:35.475Z,20.07
2018-08-06T01:25:04.467Z,20.06
2018-08-06T01:27:33.349Z,20.04
2018-08-06T01:30:02.299Z,20.02
2018-08-06T01:32:30.991Z,20.02
2018-08-06T01:34:59.649Z,20.04
2018-08-06T01:37:28.315Z,20.04
2018-08-06T01:39:57.003Z,20.04
2018-08-06T01:42:25.639Z,20.04
2018-08-06T01:44:54.292Z,20.05
2018-08-06T01:47:22.923Z,20.04
2018-08-06T01:49:51.627Z,20.02
2018-08-06T01:52:20.284Z,20.04
2018-08-06T01:54:48.940Z,20.06
2018-08-06T01:57:17.636Z,20.07
2018-08-06T01:59:46.456Z,20.09
2018-08-06T02:02:15.137Z,20.09
2018-08-06T02:04:43.832Z,20.07
2018-08-06T02:07:12.510Z,20.08
2018-08-06T02:09:41.199Z,20.09
2018-08-06T02:12:09.949Z,20.09
2018-08-06T02:14:38.624Z,20.10
2018-08-06T02:17:07.363Z,20.10
2018-08-06T02:19:36.187Z,20.08
2018-08-06T02:22:04.898Z,20.07
2018-08-06T02:24:33.709Z,20.06
2018-08-06T02:27:02.420Z,20.04
2018-08-06T02:29:31.147Z,20.03
2018-08-06T02:32:00.401Z,20.04
2018-08-06T02:34:29.136Z,20.02
2018-08-06T02:36:57.847Z,20.01
2018-08-06T02:39:26.518Z,20.00
2018-08-06T02:41:55.240Z,19.99
2018-08-06T02:44:23.948Z,19.98
2018-08-06T02:46:52.640Z,19.97
2018-08-06T02:49:21.336Z,19.97
2018-08-06T02:51:50.051Z,19.94
2018-08-06T02:54:18.711Z,19.93
2018-08-06T02:56:47.457Z,19.91
2018-08-06T02:59:16.257Z,19.90
2018-08-06T03:01:44.974Z,19.89
2018-08-06T03:04:13.664Z,19.90
2018-08-06T03:06:42.400Z,19.90
2018-08-06T03:09:12.668Z,19.89
2018-08-06T03:11:42.459Z,19.86
2018-08-06T03:14:11.173Z,19.84
2018-08-06T03:16:40.025Z,19.83
2018-08-06T03:19:08.736Z,19.82
2018-08-06T03:21:37.443Z,19.82
2018-08-06T03:24:06.167Z,19.83
2018-08-06T03:26:34.896Z,19.83
2018-08-06T03:29:03.659Z,19.83
2018-08-06T03:31:32.344Z,19.83
2018-08-06T03:34:01.022Z,19.83
2018-08-06T03:36:29.701Z,19.85
2018-08-06T03:38:58.371Z,19.86
2018-08-06T03:41:27.056Z,19.87
2018-08-06T03:43:55.755Z,19.89
2018-08-06T03:46:24.432Z,19.90
2018-08-06T03:48:53.069Z,19.92
2018-08-06T03:51:21.793Z,19.92
2018-08-06T03:53:50.437Z,19.94
2018-08-06T03:56:20.732Z,19.96
2018-08-06T03:58:50.404Z,19.97
2018-08-06T04:01:19.186Z,19.97
2018-08-06T04:03:47.992Z,19.99
2018-08-06T04:06:16.956Z,20.00
2018-08-06T04:08:45.600Z,20.01
2018-08-06T04:11:14.379Z,20.02
2018-08-06T04:13:44.019Z,20.02
2018-08-06T04:16:12.744Z,20.02
2018-08-06T04:18:41.409Z,20.03
2018-08-06T04:21:10.090Z,20.04
2018-08-06T04:23:38.775Z,20.05
2018-08-06T04:26:08.176Z,20.04
2018-08-06T04:28:36.957Z,20.04
2018-08-06T04:31:05.591Z,20.02
2018-08-06T04:33:34.312Z,20.02
2018-08-06T04:36:03.052Z,20.01
2018-08-06T04:38:32.351Z,20.01
2018-08-06T04:41:00.978Z,20.01
2018-08-06T04:43:29.635Z,20.02
2018-08-06T04:45:58.296Z,20.04
2018-08-06T04:48:27.069Z,20.04
2018-08-06T04:50:55.729Z,20.04
2018-08-06T04:53:24.396Z,20.04
2018-08-06T04:55:53.045Z,20.04
2018-08-06T04:58:21.724Z,20.05
2018-08-06T05:00:50.427Z,20.06
2018-08-06T05:03:19.096Z,20.05
2018-08-06T05:05:47.787Z,20.06
2018-08-06T05:08:16.574Z,20.07
2018-08-06T05:10:45.300Z,20.07
2018-08-06T05:13:14.150Z,20.07
2018-08-06T05:15:42.831Z,20.08
2018-08-06T05:18:11.490Z,20.07
2018-08-06T05:20:40.168Z,20.07
2018-08-06T05:23:08.872Z,20.09
2018-08-06T05:25:37.540Z,20.09
2018-08-06T05:28:06.365Z,20.12
2018-08-06T05:30:35.063Z,20.12
2018-08-06T05:33:03.807Z,20.12
2018-08-06T05:35:32.548Z,20.13
2018-08-06T05:38:01.266Z,20.14
2018-08-06T05:40:29.943Z,20.15
2018-08-06T05:42:58.612Z,20.15
2018-08-06T05:45:27.365Z,20.16
2018-08-06T05:47:56.048Z,20.16
2018-08-06T05:50:24.761Z,20.15
2018-08-06T05:52:53.471Z,20.13
2018-08-06T05:55:22.181Z,20.14
2018-08-06T05:57:50.876Z,20.13
2018-08-06T06:00:19.623Z,20.13
2018-08-06T06:02:48.349Z,20.14
2018-08-06T06:05:17.266Z,20.14
2018-08-06T06:07:46.571Z,20.15
2018-08-06T06:10:15.872Z,20.14
2018-08-06T06:12:44.602Z,20.14
2018-08-06T06:15:15.334Z,20.14
2018-08-06T06:17:44.457Z,20.13
2018-08-06T06:20:13.467Z,20.13
2018-08-06T06:22:42.110Z,20.13
2018-08-06T06:25:12.564Z,20.12
2018-08-06T06:27:41.575Z,20.11
2018-08-06T06:30:12.688Z,20.13
2018-08-06T06:32:41.607Z,20.15
2018-08-06T06:35:10.802Z,20.16
2018-08-06T06:37:39.451Z,20.18
2018-08-06T06:40:08.224Z,20.17
2018-08-06T06:42:36.940Z,20.20
2018-08-06T06:45:06.618Z,20.25
2018-08-06T06:47:35.300Z,20.29
2018-08-06T06:50:04.238Z,20.33
2018-08-06T06:52:32.912Z,20.39
2018-08-06T06:55:01.627Z,20.43
2018-08-06T06:57:30.405Z,20.47
2018-08-06T06:59:59.100Z,20.52
2018-08-06T07:02:27.747Z,20.55
2018-08-06T07:04:56.416Z,20.59
2018-08-06T07:07:25.114Z,20.63
2018-08-06T07:09:53.840Z,20.65
2018-08-06T07:12:22.543Z,20.66
2018-08-06T07:14:51.298Z,20.63
2018-08-06T07:17:19.966Z,20.61
2018-08-06T07:19:48.644Z,20.59
2018-08-06T07:22:17.321Z,20.60
2018-08-06T07:24:46.076Z,20.60
2018-08-06T07:27:14.728Z,20.59
2018-08-06T07:29:43.411Z,20.56
2018-08-06T07:32:12.081Z,20.57
2018-08-06T07:34:40.752Z,20.60
2018-08-06T07:37:09.471Z,20.59
2018-08-06T07:39:38.189Z,20.56
2018-08-06T07:42:06.961Z,20.54
2018-08-06T07:44:35.661Z,20.52
2018-08-06T07:47:04.438Z,20.51
2018-08-06T07:49:33.178Z,20.54
2018-08-06T07:52:01.956Z,20.57
2018-08-06T07:54:30.659Z,20.60
2018-08-06T07:56:59.380Z,20.66
2018-08-06T07:59:28.044Z,20.69
2018-08-06T08:01:56.780Z,20.76
2018-08-06T08:04:25.490Z,20.83
2018-08-06T08:06:54.228Z,20.91
2018-08-06T08:09:23.048Z,20.98
2018-08-06T08:11:51.796Z,21.08
2018-08-06T08:14:20.511Z,21.19
2018-08-06T08:16:49.292Z,21.28
2018-08-06T08:19:24.882Z,21.40
2018-08-06T08:21:53.603Z,21.50
2018-08-06T08:24:22.359Z,21.57
2018-08-06T08:26:51.108Z,21.60
2018-08-06T08:29:19.826Z,21.63
2018-08-06T08:31:48.533Z,21.70
2018-08-06T08:34:17.213Z,21.76
2018-08-06T08:36:46.076Z,21.83
2018-08-06T08:39:14.932Z,21.89
2018-08-06T08:41:43.798Z,21.94
2018-08-06T08:44:12.678Z,22.04
2018-08-06T08:46:41.501Z,22.14
2018-08-06T08:49:10.196Z,22.25
2018-08-06T08:51:38.960Z,22.36
2018-08-06T08:54:07.983Z,22.41
2018-08-06T08:56:36.862Z,22.48
2018-08-06T08:59:06.038Z,22.53
2018-08-06T09:01:34.987Z,22.53
2018-08-06T09:04:03.794Z,22.53
2018-08-06T09:06:32.548Z,22.61
2018-08-06T09:09:01.295Z,22.64
2018-08-06T09:11:30.073Z,22.65
2018-08-06T09:13:58.827Z,22.64
2018-08-06T09:16:27.584Z,22.64
2018-08-06T09:18:56.276Z,22.69
2018-08-06T09:21:25.319Z,22.73
2018-08-06T09:23:53.986Z,22.82
2018-08-06T09:26:22.712Z,22.88
2018-08-06T09:28:51.400Z,22.95
2018-08-06T09:31:20.068Z,23.03
2018-08-06T09:33:48.732Z,23.04
2018-08-06T09:36:17.460Z,23.05
2018-08-06T09:38:46.108Z,23.05
2018-08-06T09:41:14.756Z,23.03
2018-08-06T09:43:43.443Z,22.98
2018-08-06T09:46:12.139Z,23.05
2018-08-06T09:48:40.872Z,23.11
2018-08-06T09:51:09.479Z,23.21
2018-08-06T09:53:38.159Z,23.30
2018-08-06T09:56:06.872Z,23.36
2018-08-06T09:58:35.547Z,23.38
2018-08-06T10:02:06.687Z,23.37
2018-08-06T10:04:35.357Z,23.48
2018-08-06T10:07:04.069Z,23.57
2018-08-06T10:09:32.741Z,23.66
2018-08-06T10:12:01.479Z,23.66
2018-08-06T10:14:30.803Z,23.69
2018-08-06T10:16:59.493Z,23.74
2018-08-06T10:19:28.323Z,23.87
2018-08-06T10:21:57.163Z,23.94
2018-08-06T10:24:25.958Z,23.94
2018-08-06T10:26:54.675Z,23.90
2018-08-06T10:29:23.320Z,23.87
2018-08-06T10:31:52.058Z,23.89
2018-08-06T10:34:21.312Z,23.88
2018-08-06T10:36:50.144Z,23.90
2018-08-06T10:39:18.795Z,23.98
2018-08-06T10:41:47.528Z,24.04
2018-08-06T10:44:16.880Z,24.01
2018-08-06T10:46:45.607Z,24.04
2018-08-06T10:49:14.256Z,24.06
2018-08-06T10:51:42.985Z,24.08
2018-08-06T10:54:12.286Z,24.05
2018-08-06T10:56:40.933Z,24.10
2018-08-06T10:59:09.655Z,24.13
2018-08-06T11:01:39.209Z,24.23
2018-08-06T11:04:08.056Z,24.29
2018-08-06T11:06:37.373Z,24.32
2018-08-06T11:09:07.947Z,24.36
2018-08-06T11:11:36.964Z,24.38
2018-08-06T11:14:05.932Z,24.37
2018-08-06T11:16:34.591Z,24.46
2018-08-06T11:19:03.296Z,24.48
2018-08-06T11:21:32.649Z,24.41
2018-08-06T11:24:01.338Z,24.38
2018-08-06T11:26:31.202Z,24.41
2018-08-06T11:28:59.980Z,24.45
2018-08-06T11:31:29.525Z,24.55
2018-08-06T11:33:58.217Z,24.66
2018-08-06T11:36:27.027Z,24.60
2018-08-06T11:38:55.704Z,24.63
2018-08-06T11:41:25.278Z,24.63
2018-08-06T11:43:54.006Z,24.59
2018-08-06T11:46:22.693Z,24.57
2018-08-06T11:48:52.692Z,24.46
2018-08-06T11:51:21.601Z,24.46
2018-08-06T11:53:50.351Z,24.50
2018-08-06T11:56:19.196Z,24.47
2018-08-06T11:58:48.589Z,24.44
2018-08-06T12:01:17.355Z,24.41
2018-08-06T12:03:46.806Z,24.52
2018-08-06T12:06:15.659Z,24.55
2018-08-06T12:08:44.548Z,24.57
2018-08-06T12:11:13.444Z,24.51
2018-08-06T12:13:43.020Z,24.54
2018-08-06T12:16:11.892Z,24.60
2018-08-06T12:18:41.276Z,24.63
2018-08-06T12:21:10.039Z,24.57
2018-08-06T12:23:38.714Z,24.49
2018-08-06T12:26:08.331Z,24.44
2018-08-06T12:28:36.989Z,24.43
2018-08-06T12:31:06.253Z,24.37
2018-08-06T12:33:35.055Z,24.41
2018-08-06T12:36:03.903Z,24.53
2018-08-06T12:38:48.312Z,24.66
2018-08-06T12:41:17.001Z,24.91
2018-08-06T12:43:45.888Z,25.16
2018-08-06T12:46:14.615Z,25.41
2018-08-06T12:48:43.323Z,25.56
2018-08-06T12:51:12.695Z,25.66
2018-08-06T12:53:41.439Z,25.70
2018-08-06T12:56:10.284Z,25.64
2018-08-06T12:58:39.724Z,25.61
2018-08-06T13:01:08.456Z,25.63
2018-08-06T13:03:37.127Z,25.71
2018-08-06T13:06:06.096Z,25.72
2018-08-06T13:08:36.250Z,25.73
2018-08-06T13:11:04.962Z,25.74
2018-08-06T13:13:33.624Z,25.64
2018-08-06T13:16:03.156Z,25.61
2018-08-06T13:18:31.804Z,25.63
2018-08-06T13:21:00.510Z,25.64
2018-08-06T13:23:29.199Z,25.69
2018-08-06T13:25:57.939Z,25.69
2018-08-06T13:28:26.701Z,25.75
2018-08-06T13:30:55.695Z,25.77
2018-08-06T13:33:24.585Z,25.82
2018-08-06T13:35:54.443Z,25.77
2018-08-06T13:38:23.187Z,25.74
2018-08-06T13:40:52.870Z,25.76
2018-08-06T13:43:21.742Z,25.81
2018-08-06T13:45:50.527Z,25.85
2018-08-06T13:48:19.217Z,25.92
2018-08-06T13:50:47.954Z,25.92
2018-08-06T13:53:18.334Z,25.84
2018-08-06T13:55:47.623Z,25.82
2018-08-06T13:58:16.395Z,25.86
2018-08-06T14:00:45.175Z,25.86
2018-08-06T14:03:15.235Z,25.89
2018-08-06T14:05:43.948Z,25.88
2018-08-06T14:08:12.622Z,25.85
2018-08-06T14:10:41.939Z,25.89
2018-08-06T14:13:11.403Z,26.01
2018-08-06T14:15:40.243Z,25.95
2018-08-06T14:18:09.115Z,25.91
2018-08-06T14:20:37.891Z,25.91
2018-08-06T14:23:06.648Z,26.01
2018-08-06T14:25:49.827Z,25.95
2018-08-06T14:28:18.726Z,26.02
2018-08-06T14:30:47.612Z,26.09
2018-08-06T14:33:17.411Z,26.15
2018-08-06T14:35:46.192Z,26.24
2018-08-06T14:38:14.866Z,26.29
2018-08-06T14:40:44.027Z,26.37
2018-08-06T14:43:12.764Z,26.37
2018-08-06T14:45:41.431Z,26.34
2018-08-06T14:48:11.173Z,26.26
2018-08-06T14:50:40.193Z,26.16
2018-08-06T14:53:09.196Z,26.04
2018-08-06T14:55:38.106Z,26.01
2018-08-06T14:58:06.848Z,26.00
2018-08-06T15:00:35.749Z,25.96
2018-08-06T15:03:05.247Z,25.95
2018-08-06T15:05:34.222Z,26.03
2018-08-06T15:08:03.000Z,25.96
2018-08-06T15:10:33.226Z,25.91
2018-08-06T15:13:01.911Z,25.94
2018-08-06T15:15:31.148Z,25.95
2018-08-06T15:18:00.030Z,25.95
2018-08-06T15:20:28.831Z,26.02
2018-08-06T15:22:57.682Z,26.05
2018-08-06T15:25:26.453Z,26.10
2018-08-06T15:27:55.141Z,26.08
2018-08-06T15:30:23.835Z,26.14
2018-08-06T15:32:52.531Z,26.13
2018-08-06T15:35:22.072Z,26.13
2018-08-06T15:37:51.705Z,26.14
2018-08-06T15:40:21.227Z,26.22
2018-08-06T15:42:50.130Z,26.26
2018-08-06T15:45:20.587Z,26.16
2018-08-06T15:47:49.383Z,26.08
2018-08-06T15:50:20.084Z,25.97
2018-08-06T15:52:49.389Z,25.94
2018-08-06T15:55:18.211Z,26.01
2018-08-06T15:57:47.723Z,26.19
2018-08-06T16:00:17.786Z,26.26
2018-08-06T16:02:46.898Z,26.44
2018-08-06T16:05:16.615Z,26.54
2018-08-06T16:07:45.708Z,26.66
2018-08-06T16:10:15.515Z,26.82
2018-08-06T16:12:45.056Z,26.91
2018-08-06T16:15:15.141Z,26.91
2018-08-06T16:17:44.820Z,26.91
2018-08-06T16:20:15.056Z,26.85
2018-08-06T16:22:44.746Z,26.86
2018-08-06T16:25:14.525Z,26.85
2018-08-06T16:27:43.539Z,27.03
2018-08-06T16:30:14.742Z,27.22
2018-08-06T16:32:45.148Z,27.29
2018-08-06T16:35:14.381Z,27.55
2018-08-06T16:37:43.377Z,27.60
2018-08-06T16:40:12.927Z,27.50
2018-08-06T16:42:42.447Z,27.45
2018-08-06T16:45:11.368Z,27.46
2018-08-06T16:47:40.539Z,27.44
2018-08-06T16:50:11.626Z,27.59
2018-08-06T16:52:40.871Z,27.75
2018-08-06T16:55:11.020Z,27.99
2018-08-06T16:57:40.188Z,28.16
2018-08-06T17:00:14.231Z,28.26
2018-08-06T17:02:43.237Z,28.35
2018-08-06T17:05:13.356Z,28.46
2018-08-06T17:07:43.538Z,28.53
2018-08-06T17:10:15.606Z,28.62
2018-08-06T17:12:45.954Z,28.72
2018-08-06T17:15:17.088Z,28.80
2018-08-06T17:17:46.549Z,28.73
2018-08-06T17:20:17.396Z,28.72
2018-08-06T17:22:47.471Z,28.78
2018-08-06T17:25:16.595Z,28.72
2018-08-06T17:27:45.443Z,28.60
2018-08-06T17:30:15.300Z,28.50
2018-08-06T17:32:44.394Z,28.35
2018-08-06T17:35:13.824Z,28.25
2018-08-06T17:37:42.804Z,28.15
2018-08-06T17:40:13.856Z,27.96
2018-08-06T17:42:42.895Z,27.56
2018-08-06T17:45:18.803Z,27.22
2018-08-06T17:47:47.772Z,26.88
2018-08-06T17:50:18.254Z,26.53
2018-08-06T17:52:48.812Z,26.24
2018-08-06T17:55:18.719Z,25.91
2018-08-06T17:57:47.809Z,25.54
2018-08-06T18:00:17.108Z,25.24
2018-08-06T18:02:45.895Z,24.99
2018-08-06T18:05:15.764Z,24.83
2018-08-06T18:07:44.956Z,24.69
2018-08-06T18:10:14.962Z,24.57
2018-08-06T18:12:44.561Z,24.58
2018-08-06T18:15:13.407Z,24.65
2018-08-06T18:17:42.207Z,24.82
2018-08-06T18:20:14.658Z,25.03
2018-08-06T18:22:43.778Z,25.21
2018-08-06T18:25:15.114Z,25.24
2018-08-06T18:27:44.690Z,25.33
2018-08-06T18:30:16.188Z,25.39
2018-08-06T18:32:45.052Z,25.40
2018-08-06T18:35:15.343Z,25.33
2018-08-06T18:37:44.147Z,25.16
2018-08-06T18:40:13.754Z,24.92
2018-08-06T18:42:43.417Z,24.67
2018-08-06T18:45:14.684Z,24.44
2018-08-06T18:47:44.426Z,24.18
2018-08-06T18:50:14.247Z,23.93
2018-08-06T18:52:44.094Z,23.67
2018-08-06T18:55:13.649Z,23.42
2018-08-06T18:57:42.870Z,23.20
2018-08-06T19:00:19.084Z,23.00
2018-08-06T19:02:48.071Z,22.83
2018-08-06T19:05:17.011Z,22.64
2018-08-06T19:07:45.706Z,22.49
2018-08-06T19:10:14.511Z,22.32
2018-08-06T19:12:48.517Z,22.17
2018-08-06T19:15:17.406Z,22.01
2018-08-06T19:17:51.279Z,21.86
2018-08-06T19:20:20.032Z,21.71
2018-08-06T19:22:48.907Z,21.58
2018-08-06T19:25:22.712Z,21.44
2018-08-06T19:27:51.414Z,21.31
2018-08-06T19:30:20.119Z,21.24
2018-08-06T19:32:48.843Z,21.16
2018-08-06T19:35:17.546Z,21.07
2018-08-06T19:37:48.007Z,20.97
2018-08-06T19:40:16.727Z,20.88
2018-08-06T19:42:50.557Z,20.78
2018-08-06T19:45:19.360Z,20.71
2018-08-06T19:47:47.970Z,20.63
2018-08-06T19:50:21.833Z,20.54
2018-08-06T19:52:50.543Z,20.46
2018-08-06T19:55:24.488Z,20.40
2018-08-06T19:57:53.165Z,20.34
2018-08-06T20:00:21.923Z,20.30
2018-08-06T20:02:50.628Z,20.25
2018-08-06T20:05:19.380Z,20.22
2018-08-06T20:07:48.169Z,20.19
2018-08-06T20:10:16.864Z,20.18
2018-08-06T20:12:45.585Z,20.15
2018-08-06T20:15:17.656Z,20.12
2018-08-06T20:17:46.840Z,20.10
2018-08-06T20:20:15.614Z,20.09
2018-08-06T20:22:44.540Z,20.09
2018-08-06T20:25:19.165Z,20.08
2018-08-06T20:27:48.568Z,20.05
2018-08-06T20:30:19.028Z,20.01
2018-08-06T20:32:47.896Z,19.99
2018-08-06T20:35:17.445Z,19.95
2018-08-06T20:37:46.345Z,19.91
2018-08-06T20:40:15.191Z,19.87
2018-08-06T20:42:44.930Z,19.86
2018-08-06T20:45:15.087Z,19.81
2018-08-06T20:47:44.162Z,19.77
2018-08-06T20:50:14.747Z,19.74
2018-08-06T20:52:43.603Z,19.71
2018-08-06T20:55:12.712Z,19.70
2018-08-06T20:57:42.068Z,19.68
2018-08-06T21:00:14.859Z,19.68
2018-08-06T21:02:44.014Z,19.68
2018-08-06T21:05:12.690Z,19.69
2018-08-06T21:07:41.697Z,19.68
2018-08-06T21:10:12.558Z,19.69
2018-08-06T21:12:41.409Z,19.70
2018-08-06T21:15:11.424Z,19.70
2018-08-06T21:17:40.461Z,19.69
2018-08-06T21:20:11.816Z,19.69
2018-08-06T21:22:41.319Z,19.67
2018-08-06T21:25:11.019Z,19.63
2018-08-06T21:27:40.652Z,19.63
2018-08-06T21:30:11.688Z,19.62
2018-08-06T21:32:43.695Z,19.60
2018-08-06T21:35:12.650Z,19.60
2018-08-06T21:37:41.403Z,19.61
2018-08-06T21:40:10.299Z,19.60
2018-08-06T21:42:39.237Z,19.60
2018-08-06T21:45:07.985Z,19.64
2018-08-06T21:47:36.703Z,19.64
2018-08-06T21:50:06.523Z,19.65
2018-08-06T21:52:35.204Z,19.65
2018-08-06T21:55:03.968Z,19.67
2018-08-06T21:57:32.678Z,19.66
2018-08-06T22:00:01.396Z,19.67
2018-08-06T22:02:30.178Z,19.67
2018-08-06T22:04:58.879Z,19.65
2018-08-06T22:07:27.583Z,19.64
2018-08-06T22:09:56.280Z,19.61
2018-08-06T22:12:24.932Z,19.62
2018-08-06T22:14:53.612Z,19.60
2018-08-06T22:17:22.288Z,19.61
2018-08-06T22:19:51.005Z,19.62
2018-08-06T22:22:19.705Z,19.63
2018-08-06T22:24:48.413Z,19.60
2018-08-06T22:27:17.081Z,19.57
2018-08-06T22:29:45.772Z,19.54
2018-08-06T22:32:14.516Z,19.53
2018-08-06T22:34:43.274Z,19.52
2018-08-06T22:37:11.967Z,19.52
2018-08-06T22:39:40.677Z,19.51
2018-08-06T22:42:09.405Z,19.52
2018-08-06T22:44:38.088Z,19.53
2018-08-06T22:47:06.923Z,19.52
2018-08-06T22:49:35.611Z,19.52
2018-08-06T22:52:04.327Z,19.51
2018-08-06T22:54:33.045Z,19.48
2018-08-06T22:57:01.850Z,19.45
2018-08-06T22:59:30.561Z,19.43
2018-08-06T23:01:59.288Z,19.42
2018-08-06T23:04:27.979Z,19.41
2018-08-06T23:06:56.719Z,19.40
2018-08-06T23:09:25.456Z,19.37
2018-08-06T23:11:54.165Z,19.34
2018-08-06T23:14:22.835Z,19.31
2018-08-06T23:16:51.535Z,19.29
2018-08-06T23:19:20.280Z,19.29
2018-08-06T23:21:48.978Z,19.29
2018-08-06T23:24:17.648Z,19.30
2018-08-06T23:26:46.327Z,19.29
2018-08-06T23:29:15.052Z,19.27
2018-08-06T23:31:43.785Z,19.27
2018-08-06T23:34:12.535Z,19.26
2018-08-06T23:36:41.243Z,19.25
2018-08-06T23:39:10.609Z,19.25
2018-08-06T23:41:39.487Z,19.24
2018-08-06T23:44:08.229Z,19.24
2018-08-06T23:46:36.993Z,19.24
2018-08-06T23:49:05.720Z,19.25
2018-08-06T23:51:34.434Z,19.24
2018-08-06T23:54:03.123Z,19.23
2018-08-06T23:56:31.836Z,19.20
2018-08-06T23:59:00.497Z,19.16
